Weather observations for the past three days for
Aurora, Aurora Municipal Airport
Imperial (Metric)
Date Time (cdt) Wind (mph) Vis. (mi.) Weather Sky Cond. Temperature (ºF) Relative Humidity Wind Chill (°F) Heat Index (°F) Pressure Precipitation (in)
Air Dwpt 6 hour altimeter (in) sea level (mb) 1 hr 3 hr 6 hr
Max. Min.
08 08:15 SE 3 10.00 Mostly Cloudy BKN090 56.3 33.8 43% 29.82 0.0
08 07:55 Calm 10.00 Mostly Cloudy BKN090 55 33.8 45% 29.82 0.0
08 07:35 E 3 10.00 Mostly Cloudy BKN090 BKN120 54.7 32.5 43% 29.82 0.0
08 07:15 E 6 10.00 Mostly Cloudy BKN090 BKN120 53.4 32.5 45% 29.82 0.0
08 06:55 N 9 10.00 Mostly Cloudy SCT090 BKN120 50.9 33.6 57.7 50.7 52% 29.83 0.0
08 06:35 N 9 10.00 Partly Cloudy SCT120 50.9 32.9 50% 29.82 0.0
08 06:15 N 9 10.00 Partly Cloudy SCT095 51.8 31.8 47% 29.8 0.0
08 05:55 N 10 10.00 Overcast BKN095 OVC110 53.4 32.5 45% 29.8 0.0
08 05:35 NE 8 10.00 Overcast BKN100 OVC120 53.6 32.2 44% 29.8 0.0
08 05:15 NE 9 10.00 Mostly Cloudy BKN100 55 31.3 40% 29.8 0.0
08 04:55 N 6 10.00 Mostly Cloudy BKN100 55.2 32 41% 29.8 0.0
08 04:35 E 6 10.00 Overcast BKN100 OVC120 57 30.2 36% 29.8 0.0
08 04:15 E 3 10.00 Overcast OVC110 54.9 32.2 42% 29.79 0.0
08 03:55 E 8 10.00 Light Rain SCT070 SCT085 OVC110 56.3 32 40% 29.79 0.0
08 03:35 S 7 10.00 Mostly Cloudy BKN100 55.4 31.3 40% 29.81 0.0
08 03:15 NE 8 10.00 Overcast OVC110 55.4 32 41% 29.82 0.0
08 02:35 Calm 10.00 Overcast OVC100 56.8 29.5 35% 29.82 0.0
08 02:15 Calm 10.00 Overcast OVC110 55.8 31.1 39% 29.83 0.0
08 01:55 E 10 10.00 Overcast SCT100 OVC120 56.5 29.5 36% 29.81 0.0
08 01:35 NE 3 10.00 Overcast SCT070 OVC100 55.8 31.8 40% 29.84 0.0
08 01:15 NE 5 10.00 Overcast OVC100 54 33.3 46% 29.83 0.0
08 00:55 E 5 10.00 Overcast OVC110 55.8 30.7 72.3 53.6 39% 29.83 0.0
08 00:35 E 6 10.00 Partly Cloudy SCT110 54.5 31.3 41% 29.82 0.0
08 00:15 E 7 10.00 Fair CLR 54 30.4 41% 29.82 0.0
07 23:55 E 8 10.00 Fair CLR 54.3 30 40% 29.82 0.0
07 23:35 E 6 10.00 Fair CLR 54.5 30.9 41% 29.82 0.0
07 23:15 E 7 10.00 Fair CLR 55.6 30.2 38% 29.82 0.0
07 22:55 E 7 10.00 Fair CLR 57.4 29.5 35% 29.82 0.0
07 22:35 E 7 10.00 Fair CLR 58.1 29.8 34% 29.82 0.0
07 21:55 E 7 10.00 Partly Cloudy SCT120 57.6 28 32% 29.82 0.0
07 21:35 E 8 10.00 Partly Cloudy SCT120 57.6 27.3 31% 29.82 0.0
07 21:15 NE 7 10.00 Partly Cloudy SCT110 58.8 28.6 32% 29.81 0.0
07 20:55 NE 9 10.00 Mostly Cloudy BKN110 61 28.9 30% 29.8 0.0
07 20:35 NE 6 10.00 Overcast OVC110 64 29.3 27% 29.8 0.0
07 20:15 NE 6 10.00 Overcast OVC110 66.9 27 22% 29.79 0.0
07 19:55 N 7 10.00 Mostly Cloudy BKN120 69.8 25.5 19% 29.79 0.0
07 19:35 N 8 10.00 Fair CLR 71.6 24.3 17% 29.79 0.0
07 19:15 N 7 10.00 Fair CLR 71.8 23.9 17% 29.79 0.0
07 18:55 N 8 10.00 Fair CLR 72.7 22.8 74.5 67.8 15% 29.79 0.0
07 18:35 NW 7 10.00 Fair CLR 73.2 21.2 14% 29.79 0.0
07 18:15 NW 3 10.00 Fair CLR 73.2 20.8 14% 29.79 0.0
07 17:55 NW 14 10.00 Fair CLR 74.3 21 13% 29.79 0.0
07 17:35 W 3 10.00 Fair CLR 73.2 20.7 14% 29.79 0.0
07 17:15 W 10 10.00 Fair CLR 74.5 21.6 14% 29.79 0.0
07 16:55 W 13 G 20 10.00 Fair CLR 74.1 21.6 14% 29.8 0.0
07 16:35 NW 9 10.00 Fair CLR 73.2 22.5 15% 29.8 0.0
07 16:15 SW 9 10.00 Fair CLR 72.7 22.3 15% 29.81 0.0
07 15:55 NW 6 G 16 10.00 Fair CLR 72.9 23.4 16% 29.82 0.0
07 15:35 NW 5 G 13 10.00 Fair CLR 72.1 25.9 18% 29.82 0.0
07 15:15 W 9 G 20 10.00 Fair CLR 72.1 24.4 17% 29.83 0.0
07 14:35 NW 12 G 20 10.00 Fair CLR 71.2 22.6 16% 29.83 0.0
07 14:15 W 9 G 13 10.00 Fair CLR 70.7 23.9 17% 29.83 0.0
07 13:55 NW 8 G 21 10.00 Fair CLR 69.3 26.1 20% 29.84 0.0
07 13:35 NW 12 10.00 Fair CLR 69.4 25.9 19% 29.84 0.0
07 13:15 W 7 10.00 Fair CLR 68.9 27.1 21% 29.84 0.0
07 12:55 NW 8 10.00 Fair CLR 66.7 28.2 66.7 42.8 24% 29.84 0.0
07 12:15 N 8 10.00 Fair CLR 66.2 31.1 27% 29.85 0.0
07 11:55 NW 12 G 17 10.00 Fair CLR 65.5 32.2 29% 29.86 0.0
07 11:35 NW 10 10.00 Fair CLR 64.4 32.5 30% 29.86 0.0
07 11:15 W 9 G 16 10.00 Fair CLR 62.6 33.1 33% 29.86 0.0
07 10:55 NW 9 G 17 10.00 Fair CLR 61.3 33.8 36% 29.86 0.0
07 10:35 W 12 G 20 10.00 Fair CLR 59.9 34.5 39% 29.86 0.0
07 10:15 W 14 G 23 10.00 Fair CLR 58.6 35.1 41% 29.86 0.0
07 09:55 W 16 10.00 Fair CLR 57.2 35.8 45% 29.86 0.0
07 09:35 W 17 G 24 10.00 Fair CLR 56.1 36.3 48% 29.87 0.0
07 09:15 SW 17 G 24 10.00 Fair CLR 54.1 36.7 52% 29.86 0.0
07 08:55 SW 17 G 23 10.00 Fair CLR 52.9 36.7 54% 29.86 0.0
07 08:15 SW 16 10.00 Fair CLR 48.6 37.2 65% 43 29.88 0.0
07 07:55 SW 14 10.00 Fair CLR 46.4 37.6 71% 41 29.89 0.0
07 07:35 SW 12 10.00 Fair CLR 44.6 37.2 75% 39 29.89 0.0
07 07:15 SW 10 10.00 Fair CLR 43.3 36.9 78% 38 29.89 0.0
07 06:55 SW 12 10.00 Fair CLR 42.6 36.5 46.8 41.9 79% 37 29.89 0.0
07 06:35 SW 12 10.00 Fair CLR 41.9 36.5 81% 36 29.9 0.0
07 05:55 SW 13 10.00 Fair CLR 42.6 36.7 80% 37 29.91 0.0
07 05:35 SW 12 10.00 Fair CLR 43 37 80% 37 29.91 0.0
07 05:15 SW 13 10.00 Fair CLR 43.3 37.4 80% 37 29.92 0.0
07 04:55 SW 16 10.00 Fair CLR 44.1 37.4 78% 37 29.92 0.0
07 04:35 SW 15 10.00 Fair CLR 44.2 37.4 77% 38 29.92 0.0
07 04:15 SW 14 10.00 Fair CLR 44.1 37.4 78% 38 29.92 0.0
07 03:55 SW 14 10.00 Fair CLR 44.4 37.2 76% 38 29.92 0.0
07 03:35 SW 14 10.00 Fair CLR 44.6 37.4 76% 39 29.93 0.0
07 03:15 SW 14 10.00 Fair CLR 44.8 37 74% 39 29.94 0.0
07 02:55 SW 15 10.00 Fair CLR 45.1 36.7 72% 39 29.95 0.0
07 02:35 SW 15 10.00 Fair CLR 45.5 36.5 71% 39 29.96 0.0
07 02:15 SW 15 10.00 Fair CLR 45.9 36.5 70% 40 29.97 0.0
07 01:55 SW 14 10.00 Fair CLR 46.4 36.9 70% 41 29.98 0.0
07 01:35 SW 15 10.00 Fair CLR 46.8 36.5 68% 41 29.98 0.0
07 01:15 SW 15 10.00 Fair CLR 46.6 35.8 66% 41 29.99 0.0
07 00:55 SW 14 G 18 10.00 Fair CLR 46.4 34.7 61 46.4 64% 41 29.99 0.0
07 00:35 SW 14 10.00 Fair CLR 46.6 34 62% 41 29.99 0.0
07 00:15 SW 14 10.00 Fair CLR 47.3 33.6 59% 42 29.99 0.0
06 23:35 SW 13 10.00 Fair CLR 48.2 34 58% 43 30 0.0
06 23:15 SW 15 10.00 Fair CLR 48.9 34.2 57% 44 30 0.0
06 22:55 SW 14 10.00 Fair CLR 50 34 54% 45 30.01 0.0
06 22:35 SW 15 G 20 10.00 Fair CLR 50.4 34.3 54% 30.01 0.0
06 22:15 SW 13 G 17 10.00 Fair CLR 50.9 33.8 52% 30.01 0.0
06 21:55 SW 13 10.00 Fair CLR 51.4 32.9 49% 30.01 0.0
06 21:35 SW 13 G 18 10.00 Fair CLR 52.7 32 45% 30.01 0.0
06 20:55 SW 10 10.00 Partly Cloudy SCT090 53.8 29.8 40% 30 0.0
06 20:35 SW 13 10.00 Partly Cloudy SCT090 55.4 29.3 37% 30 0.0
06 20:15 W 10 10.00 Mostly Cloudy BKN090 57 24.6 29% 30 0.0
06 19:55 SW 13 G 17 10.00 Mostly Cloudy BKN090 57.9 23.5 27% 30 0.0
06 19:35 W 7 10.00 Mostly Cloudy BKN100 57.7 21.6 25% 30 0.0
06 19:15 W 14 G 17 10.00 Overcast OVC090 60.6 22.1 23% 30 0.0
06 18:55 W 10 10.00 Overcast OVC090 59.7 21 61.9 54.7 22% 30.01 0.0
06 18:35 W 8 10.00 Mostly Cloudy BKN090 59 19.6 22% 30.01 0.0
06 18:15 NW 10 G 17 10.00 Partly Cloudy SCT090 61 20.3 21% 30.01 0.0
06 17:55 W 10 G 17 10.00 Partly Cloudy SCT090 60.6 19.6 20% 30.01 0.0
06 17:35 W 17 10.00 Overcast OVC080 61.2 19.8 20% 30.02 0.0
06 17:15 W 13 G 22 10.00 Overcast OVC080 61 19.2 20% 30.02 0.0
06 16:55 W 9 10.00 Overcast OVC090 61 21.2 22% 30.03 0.0
06 16:35 W 10 10.00 Mostly Cloudy BKN090 61.2 20.8 21% 30.03 0.0
06 16:15 W 15 10.00 Mostly Cloudy BKN090 59.2 20.7 22% 30.05 0.0
06 15:55 W 10 G 17 10.00 Partly Cloudy SCT090 60.3 19.9 21% 30.05 0.0
06 15:35 W 10 G 21 10.00 Overcast SCT080 OVC090 59.5 20.5 22% 30.06 0.0
06 15:15 W 14 G 18 10.00 Mostly Cloudy SCT080 BKN090 58.3 21.2 24% 30.07 0.0
06 14:55 NW 13 G 21 10.00 Mostly Cloudy SCT080 BKN090 58.3 20.8 23% 30.08 0.0
06 14:35 W 7 10.00 Overcast OVC085 56.8 21.4 25% 30.08 0.0
06 14:15 W 12 10.00 Overcast OVC085 57.9 20.8 24% 30.08 0.0
06 13:55 NW 10 10.00 Overcast SCT075 OVC085 55.8 20.5 25% 30.09 0.0
06 13:35 W 9 G 22 10.00 Overcast BKN080 OVC090 56.7 20.3 24% 30.1 0.0
06 13:15 NW 6 G 20 10.00 Mostly Cloudy SCT075 BKN080 55 20.8 26% 30.1 0.0
06 12:55 NW 14 G 20 10.00 Mostly Cloudy BKN075 54.7 20.3 56.8 41.7 26% 30.11 0.0
06 12:35 N 5 10.00 Mostly Cloudy BKN075 56.8 21.2 25% 30.11 0.0
06 12:15 NW 3 10.00 Mostly Cloudy BKN085 53.8 19 25% 30.11 0.0
06 11:55 NW 9 10.00 Overcast SCT070 OVC085 54 19.4 26% 30.11 0.0
06 11:35 N 12 G 18 10.00 Mostly Cloudy BKN070 54 19.8 26% 30.12 0.0
06 11:15 N 9 G 18 10.00 Mostly Cloudy SCT070 BKN085 53.6 19.9 27% 30.12 0.0
06 10:55 N 7 10.00 Mostly Cloudy SCT070 BKN085 54.3 21.4 28% 30.12 0.0
06 10:35 N 6 10.00 Partly Cloudy SCT085 51.8 20.1 29% 30.12 0.0
06 10:15 NW 7 10.00 Partly Cloudy SCT095 51.6 20.5 29% 30.12 0.0
06 09:55 NW 3 10.00 Partly Cloudy SCT080 SCT095 51.8 21.6 31% 30.12 0.0
06 09:35 NW 3 10.00 Fair CLR 50.4 22.5 33% 30.11 0.0
06 09:15 W 3 10.00 Fair CLR 49.3 23.4 36% 30.11 0.0
06 08:55 Calm 10.00 Fair CLR 47.8 23.4 38% 30.11 0.0
06 08:35 Calm 10.00 Partly Cloudy SCT100 47.3 23.9 40% 30.11 0.0
06 08:15 NW 3 10.00 Partly Cloudy SCT100 46.4 24.3 42% 30.1 0.0
06 07:55 NW 5 10.00 Partly Cloudy SCT095 45 27.1 50% 43 30.1 0.0
06 07:35 N 5 10.00 Mostly Cloudy BKN095 43.9 28.6 55% 42 30.09 0.0
06 07:15 NW 5 10.00 Overcast SCT075 OVC095 42.4 29.3 60% 40 30.08 0.0
06 06:55 NW 3 10.00 Overcast BKN075 OVC095 41.2 28.9 45.3 40.5 62% 30.07 0.0
06 06:35 NW 5 10.00 Overcast OVC075 40.6 28.9 63% 38 30.07 0.0
06 06:15 Calm 10.00 Overcast OVC075 41 28.8 62% 30.06 0.0
06 05:55 Calm 10.00 Overcast OVC075 41.7 29.7 62% 30.06 0.0
06 05:35 N 3 10.00 Overcast OVC075 42.6 28.2 57% 30.06 0.0
06 05:15 N 3 10.00 Overcast OVC075 42.8 28 56% 30.06 0.0
06 04:55 Calm 10.00 Overcast OVC075 42.6 28.2 57% 30.05 0.0
06 04:35 NW 3 10.00 Overcast OVC075 42.4 28.2 57% 30.05 0.0
06 04:15 N 3 10.00 Overcast OVC075 42.3 27.9 57% 30.05 0.0
06 03:55 N 5 10.00 Overcast OVC075 41.7 28.2 59% 39 30.05 0.0
06 03:35 NW 6 10.00 Overcast OVC075 40.6 27.5 60% 37 30.04 0.0
06 03:15 N 3 10.00 Overcast OVC075 41.7 26.8 55% 30.03 0.0
06 02:55 N 3 10.00 Overcast OVC075 42.3 27.7 56% 30.03 0.0
06 02:35 N 3 10.00 Mostly Cloudy BKN075 43 27.3 54% 30.03 0.0
06 02:15 N 3 10.00 Fair CLR 43.7 26.8 51% 30.03 0.0
06 01:55 N 3 10.00 Fair CLR 45 25.7 47% 30.02 0.0
06 01:35 N 5 10.00 Fair CLR 44.8 26.2 48% 43 30.02 0.0
06 01:15 N 5 10.00 Fair CLR 45 26.6 49% 43 30.01 0.0
06 00:55 N 6 10.00 Partly Cloudy SCT120 45.5 26.8 55.4 45.5 48% 43 30.01 0.0
06 00:35 N 5 10.00 Mostly Cloudy BKN120 45.9 26.4 47% 44 30.01 0.0
06 00:15 N 6 10.00 Mostly Cloudy BKN120 46.4 26.6 46% 44 30 0.0
05 23:55 N 6 10.00 Mostly Cloudy BKN120 47.3 25.7 43% 45 30 0.0
05 23:35 N 6 10.00 Mostly Cloudy BKN120 47.7 24.8 41% 45 30 0.0
05 23:15 N 6 10.00 Mostly Cloudy BKN120 48.2 24.8 40% 46 30 0.0
05 22:55 N 7 10.00 Mostly Cloudy BKN110 48.7 24.8 39% 46 30 0.0
05 22:35 N 6 10.00 Overcast OVC120 48.6 25.5 41% 47 29.99 0.0
05 22:15 N 6 10.00 Mostly Cloudy BKN120 49.5 24.8 38% 48 29.99 0.0
05 21:55 N 6 10.00 Overcast OVC120 49.6 25 38% 48 29.97 0.0
05 21:35 NE 6 10.00 Mostly Cloudy BKN120 50.2 24.6 37% 29.97 0.0
05 21:15 N 6 10.00 Mostly Cloudy BKN120 50.9 23.9 35% 29.96 0.0
05 20:55 N 8 10.00 Overcast OVC110 51.3 24.4 35% 29.95 0.0
05 20:35 N 9 10.00 Overcast OVC110 52.2 23.5 33% 29.94 0.0
05 20:15 N 9 10.00 Overcast OVC100 52.7 23.9 33% 29.93 0.0
05 19:55 N 13 10.00 Overcast OVC100 53.6 23.7 31% 29.93 0.0
05 19:35 N 14 10.00 Overcast OVC100 54.1 23 30% 29.92 0.0
05 19:15 N 14 10.00 Mostly Cloudy BKN110 54.7 23.9 30% 29.92 0.0
05 18:55 N 14 10.00 Partly Cloudy SCT110 55.4 24.6 57.2 52.9 30% 29.91 0.0
05 18:35 N 10 10.00 Overcast SCT070 OVC110 56.1 26.1 31% 29.91 0.0
05 18:15 N 13 10.00 Mostly Cloudy BKN110 56.3 25.7 31% 29.91 0.0
05 17:55 N 12 10.00 Mostly Cloudy SCT070 SCT080 BKN110 56.5 26.1 31% 29.91 0.0
05 17:35 N 14 10.00 Mostly Cloudy SCT070 BKN080 57 26.2 31% 29.9 0.0
05 17:15 N 7 10.00 Overcast BKN070 OVC080 56.3 27.1 33% 29.91 0.0
05 16:55 NW 7 10.00 Overcast OVC070 55.8 27.5 34% 29.91 0.0
05 16:35 NW 10 G 16 10.00 Mostly Cloudy SCT070 BKN085 55.9 28.4 35% 29.92 0.0
05 16:15 NW 10 10.00 Mostly Cloudy SCT070 BKN085 56.5 29.5 36% 29.92 0.0
05 15:55 N 6 G 10 10.00 Overcast OVC070 55.4 29.5 37% 29.93 0.0
05 15:35 NW 10 10.00 Overcast SCT055 OVC075 55.8 29.7 37% 29.94 0.0
05 15:15 N 9 G 17 10.00 Overcast SCT055 OVC065 55.8 29.3 36% 29.94 0.0
05 14:55 N 12 10.00 Mostly Cloudy BKN065 BKN070 55.6 29.8 37% 29.95 0.0
05 14:35 NW 7 10.00 Overcast SCT055 OVC065 55.6 29.3 37% 29.95 0.0
05 14:15 NW 14 10.00 Mostly Cloudy BKN065 55.9 28.6 35% 29.96 0.0
05 13:55 NW 9 G 16 10.00 Partly Cloudy SCT060 SCT070 55.9 29.5 36% 29.95 0.0
05 13:35 N 7 G 16 10.00 Partly Cloudy SCT046 54.9 31.5 41% 29.96 0.0
05 13:15 N 8 10.00 Fair CLR 54 32.7 45% 29.97 0.0
05 12:55 N 3 10.00 Partly Cloudy SCT080 51.8 32.2 52.2 47.5 47% 29.97 0.0
05 12:35 N 7 10.00 Overcast SCT060 BKN070 OVC080 50.5 33.4 52% 29.98 0.0
05 12:15 N 9 G 16 10.00 Mostly Cloudy SCT042 SCT048 BKN060 50.4 34.3 54% 29.99 0.0
05 11:55 NW 13 10.00 Overcast OVC050 50 34.2 55% 46 29.99 0.0
05 11:35 N 12 G 17 10.00 Light Drizzle OVC050 48.6 34.7 59% 44 29.99 0.0
05 11:15 N 14 G 20 10.00 Light Rain SCT039 BKN050 OVC060 50.5 31.5 48% 29.98 0.0
05 10:55 N 16 G 21 10.00 Overcast SCT050 OVC060 50.9 31.5 47% 29.98 0.0
05 10:35 N 13 10.00 Overcast OVC070 51.1 30.4 45% 29.97 0.0
05 10:15 NE 12 10.00 Overcast BKN070 OVC095 50.9 28.2 42% 29.96 0.0
05 09:55 N 12 10.00 Overcast SCT070 OVC095 51.1 29.3 43% 29.96 0.0
05 09:35 NE 10 10.00 Overcast SCT070 OVC095 50.9 29.8 44% 29.95 0.0
05 09:15 NE 8 10.00 Overcast SCT065 OVC095 50 32.2 51% 47 29.94 0.0
05 08:55 NE 7 10.00 Overcast BKN060 BKN075 OVC095 49.1 34.2 57% 47 29.93 0.0
Date Time (cdt) Wind (mph) Vis. (mi.) Weather Sky Cond. Air Dwpt Max. Min. Relative Humidity Wind Chill (°F) Heat Index (°F) altimeter (in) sea level (mb) 1 hr 3 hr 6 hr
6 hour
Temperature (ºF) Pressure Precipitation (in)